sensor_id;sensor_type;location;lat;lon;timestamp;temperature;humidity
13186;DHT22;6658;53.080;7.428;2024-03-02T00:00:20;6.90;99.90
13186;DHT22;6658;53.080;7.428;2024-03-02T00:02:48;7.00;99.90
13186;DHT22;6658;53.080;7.428;2024-03-02T00:05:19;7.00;99.90
13186;DHT22;6658;53.080;7.428;2024-03-02T00:07:47;7.10;99.90
13186;DHT22;6658;53.080;7.428;2024-03-02T00:10:16;7.00;99.90
13186;DHT22;6658;53.080;7.428;2024-03-02T00:12:47;7.00;99.90
13186;DHT22;6658;53.080;7.428;2024-03-02T00:18:01;7.00;99.90
13186;DHT22;6658;53.080;7.428;2024-03-02T00:20:27;7.10;99.90
13186;DHT22;6658;53.080;7.428;2024-03-02T00:23:04;7.00;99.90
13186;DHT22;6658;53.080;7.428;2024-03-02T00:25:53;7.00;99.90
13186;DHT22;6658;53.080;7.428;2024-03-02T00:28:31;7.00;99.90
13186;DHT22;6658;53.080;7.428;2024-03-02T00:31:11;7.00;99.90
13186;DHT22;6658;53.080;7.428;2024-03-02T00:33:47;7.00;99.90
13186;DHT22;6658;53.080;7.428;2024-03-02T00:36:15;6.90;99.90
13186;DHT22;6658;53.080;7.428;2024-03-02T00:38:48;7.00;99.90
13186;DHT22;6658;53.080;7.428;2024-03-02T00:41:27;7.00;99.90
13186;DHT22;6658;53.080;7.428;2024-03-02T00:46:28;6.90;99.90
13186;DHT22;6658;53.080;7.428;2024-03-02T00:49:00;6.90;99.90
13186;DHT22;6658;53.080;7.428;2024-03-02T00:51:28;6.90;99.90
13186;DHT22;6658;53.080;7.428;2024-03-02T00:53:55;6.90;99.90
13186;DHT22;6658;53.080;7.428;2024-03-02T00:56:22;6.80;99.90
13186;DHT22;6658;53.080;7.428;2024-03-02T00:58:48;6.80;99.90
13186;DHT22;6658;53.080;7.428;2024-03-02T01:01:14;6.80;99.90
13186;DHT22;6658;53.080;7.428;2024-03-02T01:03:41;6.80;99.90
13186;DHT22;6658;53.080;7.428;2024-03-02T01:06:08;6.80;99.90
13186;DHT22;6658;53.080;7.428;2024-03-02T01:08:36;6.80;99.90
13186;DHT22;6658;53.080;7.428;2024-03-02T01:11:03;6.90;99.90
13186;DHT22;6658;53.080;7.428;2024-03-02T01:13:29;6.80;99.90
13186;DHT22;6658;53.080;7.428;2024-03-02T01:15:55;6.80;99.90
13186;DHT22;6658;53.080;7.428;2024-03-02T01:18:21;6.80;99.90
13186;DHT22;6658;53.080;7.428;2024-03-02T01:20:48;6.70;99.90
13186;DHT22;6658;53.080;7.428;2024-03-02T01:23:13;6.70;99.90
13186;DHT22;6658;53.080;7.428;2024-03-02T01:25:39;6.70;99.90
13186;DHT22;6658;53.080;7.428;2024-03-02T01:28:05;6.70;99.90
13186;DHT22;6658;53.080;7.428;2024-03-02T01:30:31;6.80;99.90
13186;DHT22;6658;53.080;7.428;2024-03-02T01:32:57;6.70;99.90
13186;DHT22;6658;53.080;7.428;2024-03-02T01:35:24;6.70;99.90
13186;DHT22;6658;53.080;7.428;2024-03-02T01:37:50;6.70;99.90
13186;DHT22;6658;53.080;7.428;2024-03-02T01:40:16;6.80;99.90
13186;DHT22;6658;53.080;7.428;2024-03-02T01:42:43;6.80;99.90
13186;DHT22;6658;53.080;7.428;2024-03-02T01:45:11;6.80;99.90
13186;DHT22;6658;53.080;7.428;2024-03-02T01:47:37;6.70;99.90
13186;DHT22;6658;53.080;7.428;2024-03-02T01:50:03;6.80;99.90
13186;DHT22;6658;53.080;7.428;2024-03-02T01:52:29;6.90;99.90
13186;DHT22;6658;53.080;7.428;2024-03-02T01:54:55;6.90;99.90
13186;DHT22;6658;53.080;7.428;2024-03-02T01:57:20;6.90;99.90
13186;DHT22;6658;53.080;7.428;2024-03-02T01:59:47;6.90;99.90
13186;DHT22;6658;53.080;7.428;2024-03-02T02:02:16;6.80;99.90
13186;DHT22;6658;53.080;7.428;2024-03-02T02:04:42;6.90;99.90
13186;DHT22;6658;53.080;7.428;2024-03-02T02:07:08;6.90;99.90
13186;DHT22;6658;53.080;7.428;2024-03-02T02:09:33;6.90;99.90
13186;DHT22;6658;53.080;7.428;2024-03-02T02:11:59;6.90;99.90
13186;DHT22;6658;53.080;7.428;2024-03-02T02:14:25;7.00;99.90
13186;DHT22;6658;53.080;7.428;2024-03-02T02:16:51;7.00;99.90
13186;DHT22;6658;53.080;7.428;2024-03-02T02:19:17;7.10;99.90
13186;DHT22;6658;53.080;7.428;2024-03-02T02:21:43;7.10;99.90
13186;DHT22;6658;53.080;7.428;2024-03-02T02:24:09;7.20;99.90
13186;DHT22;6658;53.080;7.428;2024-03-02T02:26:35;7.20;99.90
13186;DHT22;6658;53.080;7.428;2024-03-02T02:29:00;7.20;99.90
13186;DHT22;6658;53.080;7.428;2024-03-02T02:31:26;7.10;99.90
13186;DHT22;6658;53.080;7.428;2024-03-02T02:33:52;7.10;99.90
13186;DHT22;6658;53.080;7.428;2024-03-02T02:36:17;7.10;99.90
13186;DHT22;6658;53.080;7.428;2024-03-02T02:38:44;7.10;99.90
13186;DHT22;6658;53.080;7.428;2024-03-02T02:41:12;7.20;99.90
13186;DHT22;6658;53.080;7.428;2024-03-02T02:43:38;7.20;99.90
13186;DHT22;6658;53.080;7.428;2024-03-02T02:46:05;7.20;99.90
13186;DHT22;6658;53.080;7.428;2024-03-02T02:48:31;7.20;99.90
13186;DHT22;6658;53.080;7.428;2024-03-02T02:50:56;7.30;99.90
13186;DHT22;6658;53.080;7.428;2024-03-02T02:53:22;7.20;99.90
13186;DHT22;6658;53.080;7.428;2024-03-02T02:55:48;7.30;99.90
13186;DHT22;6658;53.080;7.428;2024-03-02T02:58:13;7.30;99.90
13186;DHT22;6658;53.080;7.428;2024-03-02T03:00:40;7.40;99.90
13186;DHT22;6658;53.080;7.428;2024-03-02T03:03:06;7.30;99.90
13186;DHT22;6658;53.080;7.428;2024-03-02T03:05:31;7.30;99.90
13186;DHT22;6658;53.080;7.428;2024-03-02T03:07:57;7.30;99.90
13186;DHT22;6658;53.080;7.428;2024-03-02T03:10:23;7.20;99.90
13186;DHT22;6658;53.080;7.428;2024-03-02T03:12:51;7.30;99.90
13186;DHT22;6658;53.080;7.428;2024-03-02T03:15:17;7.30;99.90
13186;DHT22;6658;53.080;7.428;2024-03-02T03:17:43;7.30;99.90
13186;DHT22;6658;53.080;7.428;2024-03-02T03:20:09;7.40;99.90
13186;DHT22;6658;53.080;7.428;2024-03-02T03:22:41;7.40;99.90
13186;DHT22;6658;53.080;7.428;2024-03-02T03:25:06;7.40;99.90
13186;DHT22;6658;53.080;7.428;2024-03-02T03:27:35;7.40;99.90
13186;DHT22;6658;53.080;7.428;2024-03-02T03:30:01;7.40;99.90
13186;DHT22;6658;53.080;7.428;2024-03-02T03:32:28;7.40;99.90
13186;DHT22;6658;53.080;7.428;2024-03-02T03:34:53;7.40;99.90
13186;DHT22;6658;53.080;7.428;2024-03-02T03:37:19;7.30;99.90
13186;DHT22;6658;53.080;7.428;2024-03-02T03:39:45;7.30;99.90
13186;DHT22;6658;53.080;7.428;2024-03-02T03:42:11;7.20;99.90
13186;DHT22;6658;53.080;7.428;2024-03-02T03:44:36;7.10;99.90
13186;DHT22;6658;53.080;7.428;2024-03-02T03:47:02;7.00;99.90
13186;DHT22;6658;53.080;7.428;2024-03-02T03:49:28;6.90;99.90
13186;DHT22;6658;53.080;7.428;2024-03-02T03:51:53;6.80;99.90
13186;DHT22;6658;53.080;7.428;2024-03-02T03:54:19;6.80;99.90
13186;DHT22;6658;53.080;7.428;2024-03-02T03:56:45;6.70;99.90
13186;DHT22;6658;53.080;7.428;2024-03-02T03:59:10;6.60;99.90
13186;DHT22;6658;53.080;7.428;2024-03-02T04:01:37;6.50;99.90
13186;DHT22;6658;53.080;7.428;2024-03-02T04:04:02;6.40;99.90
13186;DHT22;6658;53.080;7.428;2024-03-02T04:06:29;6.40;99.90
13186;DHT22;6658;53.080;7.428;2024-03-02T04:08:55;6.30;99.90
13186;DHT22;6658;53.080;7.428;2024-03-02T04:11:21;6.30;99.90
13186;DHT22;6658;53.080;7.428;2024-03-02T04:13:46;6.40;99.90
13186;DHT22;6658;53.080;7.428;2024-03-02T04:16:12;6.30;99.90
13186;DHT22;6658;53.080;7.428;2024-03-02T04:18:38;6.20;99.90
13186;DHT22;6658;53.080;7.428;2024-03-02T04:21:05;6.10;99.90
13186;DHT22;6658;53.080;7.428;2024-03-02T04:23:31;6.10;99.90
13186;DHT22;6658;53.080;7.428;2024-03-02T04:25:56;6.20;99.90
13186;DHT22;6658;53.080;7.428;2024-03-02T04:28:22;6.20;99.90
13186;DHT22;6658;53.080;7.428;2024-03-02T04:30:47;6.20;99.90
13186;DHT22;6658;53.080;7.428;2024-03-02T04:33:13;6.20;99.90
13186;DHT22;6658;53.080;7.428;2024-03-02T04:35:39;6.20;99.90
13186;DHT22;6658;53.080;7.428;2024-03-02T04:38:04;6.30;99.90
13186;DHT22;6658;53.080;7.428;2024-03-02T04:40:30;6.30;99.90
13186;DHT22;6658;53.080;7.428;2024-03-02T04:42:57;6.30;99.90
13186;DHT22;6658;53.080;7.428;2024-03-02T04:45:24;6.30;99.90
13186;DHT22;6658;53.080;7.428;2024-03-02T04:47:50;6.20;99.90
13186;DHT22;6658;53.080;7.428;2024-03-02T04:50:16;6.10;99.90
13186;DHT22;6658;53.080;7.428;2024-03-02T04:52:41;6.10;99.90
13186;DHT22;6658;53.080;7.428;2024-03-02T04:55:07;6.00;99.90
13186;DHT22;6658;53.080;7.428;2024-03-02T04:57:43;5.90;99.90
13186;DHT22;6658;53.080;7.428;2024-03-02T05:00:09;5.90;99.90
13186;DHT22;6658;53.080;7.428;2024-03-02T05:02:35;5.90;99.90
13186;DHT22;6658;53.080;7.428;2024-03-02T05:05:01;5.90;99.90
13186;DHT22;6658;53.080;7.428;2024-03-02T05:07:28;5.80;99.90
13186;DHT22;6658;53.080;7.428;2024-03-02T05:09:54;5.80;99.90
13186;DHT22;6658;53.080;7.428;2024-03-02T05:12:19;5.70;99.90
13186;DHT22;6658;53.080;7.428;2024-03-02T05:15:20;5.70;99.90
13186;DHT22;6658;53.080;7.428;2024-03-02T05:17:47;5.50;99.90
13186;DHT22;6658;53.080;7.428;2024-03-02T05:20:12;5.50;99.90
13186;DHT22;6658;53.080;7.428;2024-03-02T05:22:38;5.40;99.90
13186;DHT22;6658;53.080;7.428;2024-03-02T05:25:05;5.40;99.90
13186;DHT22;6658;53.080;7.428;2024-03-02T05:27:31;5.40;99.90
13186;DHT22;6658;53.080;7.428;2024-03-02T05:30:00;5.40;99.90
13186;DHT22;6658;53.080;7.428;2024-03-02T05:32:26;5.40;99.90
13186;DHT22;6658;53.080;7.428;2024-03-02T05:34:51;5.40;99.90
13186;DHT22;6658;53.080;7.428;2024-03-02T05:37:17;5.40;99.90
13186;DHT22;6658;53.080;7.428;2024-03-02T05:39:43;5.40;99.90
13186;DHT22;6658;53.080;7.428;2024-03-02T05:42:09;5.40;99.90
13186;DHT22;6658;53.080;7.428;2024-03-02T05:44:36;5.40;99.90
13186;DHT22;6658;53.080;7.428;2024-03-02T05:47:02;5.40;99.90
13186;DHT22;6658;53.080;7.428;2024-03-02T05:49:28;5.30;99.90
13186;DHT22;6658;53.080;7.428;2024-03-02T05:51:54;5.30;99.90
13186;DHT22;6658;53.080;7.428;2024-03-02T05:54:20;5.30;99.90
13186;DHT22;6658;53.080;7.428;2024-03-02T05:56:45;5.30;99.90
13186;DHT22;6658;53.080;7.428;2024-03-02T05:59:11;5.20;99.90
13186;DHT22;6658;53.080;7.428;2024-03-02T06:01:45;5.20;99.90
13186;DHT22;6658;53.080;7.428;2024-03-02T06:04:12;5.20;99.90
13186;DHT22;6658;53.080;7.428;2024-03-02T06:06:38;5.20;99.90
13186;DHT22;6658;53.080;7.428;2024-03-02T06:09:05;5.20;99.90
13186;DHT22;6658;53.080;7.428;2024-03-02T06:11:37;5.10;99.90
13186;DHT22;6658;53.080;7.428;2024-03-02T06:14:04;5.10;99.90
13186;DHT22;6658;53.080;7.428;2024-03-02T06:16:29;5.10;99.90
13186;DHT22;6658;53.080;7.428;2024-03-02T06:18:56;5.20;99.90
13186;DHT22;6658;53.080;7.428;2024-03-02T06:21:23;5.20;99.90
13186;DHT22;6658;53.080;7.428;2024-03-02T06:23:49;5.20;99.90
13186;DHT22;6658;53.080;7.428;2024-03-02T06:26:15;5.20;99.90
13186;DHT22;6658;53.080;7.428;2024-03-02T06:28:41;5.20;99.90
13186;DHT22;6658;53.080;7.428;2024-03-02T06:31:06;5.20;99.90
13186;DHT22;6658;53.080;7.428;2024-03-02T06:33:32;5.20;99.90
13186;DHT22;6658;53.080;7.428;2024-03-02T06:35:58;5.30;99.90
13186;DHT22;6658;53.080;7.428;2024-03-02T06:38:23;5.30;99.90
13186;DHT22;6658;53.080;7.428;2024-03-02T06:40:49;5.30;99.90
13186;DHT22;6658;53.080;7.428;2024-03-02T06:43:15;5.30;99.90
13186;DHT22;6658;53.080;7.428;2024-03-02T06:45:41;5.20;99.90
13186;DHT22;6658;53.080;7.428;2024-03-02T06:48:07;5.20;99.90
13186;DHT22;6658;53.080;7.428;2024-03-02T06:50:32;5.30;99.90
13186;DHT22;6658;53.080;7.428;2024-03-02T06:52:58;5.30;99.90
13186;DHT22;6658;53.080;7.428;2024-03-02T06:55:24;5.30;99.90
13186;DHT22;6658;53.080;7.428;2024-03-02T06:57:50;5.30;99.90
13186;DHT22;6658;53.080;7.428;2024-03-02T07:00:17;5.30;99.90
13186;DHT22;6658;53.080;7.428;2024-03-02T07:02:44;5.40;99.90
13186;DHT22;6658;53.080;7.428;2024-03-02T07:05:10;5.40;99.90
13186;DHT22;6658;53.080;7.428;2024-03-02T07:07:37;5.40;99.90
13186;DHT22;6658;53.080;7.428;2024-03-02T07:10:06;5.40;99.90
13186;DHT22;6658;53.080;7.428;2024-03-02T07:12:33;5.50;99.90
13186;DHT22;6658;53.080;7.428;2024-03-02T07:14:59;5.50;99.90
13186;DHT22;6658;53.080;7.428;2024-03-02T07:17:31;5.60;99.90
13186;DHT22;6658;53.080;7.428;2024-03-02T07:19:57;5.70;99.90
13186;DHT22;6658;53.080;7.428;2024-03-02T07:22:23;5.90;99.90
13186;DHT22;6658;53.080;7.428;2024-03-02T07:24:49;6.10;99.90
13186;DHT22;6658;53.080;7.428;2024-03-02T07:27:16;6.20;99.90
13186;DHT22;6658;53.080;7.428;2024-03-02T07:29:42;6.30;99.90
13186;DHT22;6658;53.080;7.428;2024-03-02T07:32:08;6.40;99.90
13186;DHT22;6658;53.080;7.428;2024-03-02T07:34:34;6.50;99.90
13186;DHT22;6658;53.080;7.428;2024-03-02T07:37:00;6.60;99.90
13186;DHT22;6658;53.080;7.428;2024-03-02T07:39:26;6.70;99.90
13186;DHT22;6658;53.080;7.428;2024-03-02T07:41:52;6.80;99.90
13186;DHT22;6658;53.080;7.428;2024-03-02T07:44:18;6.90;99.90
13186;DHT22;6658;53.080;7.428;2024-03-02T07:46:47;7.00;99.90
13186;DHT22;6658;53.080;7.428;2024-03-02T07:49:15;7.00;99.90
13186;DHT22;6658;53.080;7.428;2024-03-02T07:51:41;7.00;99.90
13186;DHT22;6658;53.080;7.428;2024-03-02T07:54:07;7.10;99.90
13186;DHT22;6658;53.080;7.428;2024-03-02T07:56:33;7.10;99.90
13186;DHT22;6658;53.080;7.428;2024-03-02T07:58:59;7.20;99.90
13186;DHT22;6658;53.080;7.428;2024-03-02T08:01:30;7.30;99.90
13186;DHT22;6658;53.080;7.428;2024-03-02T08:04:00;7.30;99.90
13186;DHT22;6658;53.080;7.428;2024-03-02T08:06:27;7.40;99.90
13186;DHT22;6658;53.080;7.428;2024-03-02T08:08:57;7.50;99.90
13186;DHT22;6658;53.080;7.428;2024-03-02T08:11:23;7.60;99.90
13186;DHT22;6658;53.080;7.428;2024-03-02T08:13:49;7.70;99.90
13186;DHT22;6658;53.080;7.428;2024-03-02T08:16:16;7.80;99.90
13186;DHT22;6658;53.080;7.428;2024-03-02T08:18:48;7.90;99.90
13186;DHT22;6658;53.080;7.428;2024-03-02T08:21:14;8.10;99.90
13186;DHT22;6658;53.080;7.428;2024-03-02T08:23:41;8.20;99.90
13186;DHT22;6658;53.080;7.428;2024-03-02T08:26:11;8.40;99.90
13186;DHT22;6658;53.080;7.428;2024-03-02T08:28:37;8.50;99.90
13186;DHT22;6658;53.080;7.428;2024-03-02T08:31:03;8.50;99.90
13186;DHT22;6658;53.080;7.428;2024-03-02T08:33:29;8.60;99.90
13186;DHT22;6658;53.080;7.428;2024-03-02T08:35:55;8.60;99.90
13186;DHT22;6658;53.080;7.428;2024-03-02T08:38:21;8.70;99.90
13186;DHT22;6658;53.080;7.428;2024-03-02T08:40:47;8.80;99.90
13186;DHT22;6658;53.080;7.428;2024-03-02T08:43:13;9.00;99.90
13186;DHT22;6658;53.080;7.428;2024-03-02T08:45:39;9.20;99.90
13186;DHT22;6658;53.080;7.428;2024-03-02T08:48:09;9.40;99.90
13186;DHT22;6658;53.080;7.428;2024-03-02T08:50:35;9.50;99.90
13186;DHT22;6658;53.080;7.428;2024-03-02T08:53:01;9.70;99.90
13186;DHT22;6658;53.080;7.428;2024-03-02T08:55:26;9.80;99.90
13186;DHT22;6658;53.080;7.428;2024-03-02T08:57:52;9.80;99.90
13186;DHT22;6658;53.080;7.428;2024-03-02T09:00:18;9.90;99.90
13186;DHT22;6658;53.080;7.428;2024-03-02T09:02:44;10.00;99.90
13186;DHT22;6658;53.080;7.428;2024-03-02T09:05:10;10.20;99.90
13186;DHT22;6658;53.080;7.428;2024-03-02T09:07:36;10.30;99.90
13186;DHT22;6658;53.080;7.428;2024-03-02T09:10:05;10.30;99.90
13186;DHT22;6658;53.080;7.428;2024-03-02T09:12:31;10.50;99.90
13186;DHT22;6658;53.080;7.428;2024-03-02T09:14:58;10.70;99.90
13186;DHT22;6658;53.080;7.428;2024-03-02T09:17:24;10.80;99.90
13186;DHT22;6658;53.080;7.428;2024-03-02T09:19:49;11.00;99.90
13186;DHT22;6658;53.080;7.428;2024-03-02T09:22:18;11.10;99.90
13186;DHT22;6658;53.080;7.428;2024-03-02T09:24:44;11.20;99.90
13186;DHT22;6658;53.080;7.428;2024-03-02T09:27:12;11.10;99.90
13186;DHT22;6658;53.080;7.428;2024-03-02T09:29:38;11.00;99.90
13186;DHT22;6658;53.080;7.428;2024-03-02T09:32:05;11.00;99.90
13186;DHT22;6658;53.080;7.428;2024-03-02T09:34:31;10.90;99.90
13186;DHT22;6658;53.080;7.428;2024-03-02T09:36:57;10.90;99.90
13186;DHT22;6658;53.080;7.428;2024-03-02T09:39:23;10.80;99.90
13186;DHT22;6658;53.080;7.428;2024-03-02T09:41:51;10.80;99.90
13186;DHT22;6658;53.080;7.428;2024-03-02T09:44:17;10.80;99.90
13186;DHT22;6658;53.080;7.428;2024-03-02T09:46:43;10.80;99.90
13186;DHT22;6658;53.080;7.428;2024-03-02T09:49:10;10.80;99.90
13186;DHT22;6658;53.080;7.428;2024-03-02T09:51:37;10.80;99.90
13186;DHT22;6658;53.080;7.428;2024-03-02T09:54:03;10.80;99.90
13186;DHT22;6658;53.080;7.428;2024-03-02T09:56:29;10.80;99.90
13186;DHT22;6658;53.080;7.428;2024-03-02T09:58:55;11.10;99.90
13186;DHT22;6658;53.080;7.428;2024-03-02T10:01:20;12.40;99.90
13186;DHT22;6658;53.080;7.428;2024-03-02T10:03:47;13.40;99.90
13186;DHT22;6658;53.080;7.428;2024-03-02T10:06:22;14.10;99.90
13186;DHT22;6658;53.080;7.428;2024-03-02T10:08:48;14.20;99.90
13186;DHT22;6658;53.080;7.428;2024-03-02T10:11:27;14.10;99.90
13186;DHT22;6658;53.080;7.428;2024-03-02T10:14:08;13.60;99.90
13186;DHT22;6658;53.080;7.428;2024-03-02T10:16:39;13.00;99.90
13186;DHT22;6658;53.080;7.428;2024-03-02T10:19:23;12.70;99.90
13186;DHT22;6658;53.080;7.428;2024-03-02T10:21:53;12.40;99.90
13186;DHT22;6658;53.080;7.428;2024-03-02T10:24:20;12.20;99.90
13186;DHT22;6658;53.080;7.428;2024-03-02T10:26:47;12.10;99.90
13186;DHT22;6658;53.080;7.428;2024-03-02T10:29:13;12.00;99.90
13186;DHT22;6658;53.080;7.428;2024-03-02T10:31:40;11.90;99.90
13186;DHT22;6658;53.080;7.428;2024-03-02T10:34:07;11.80;99.90
13186;DHT22;6658;53.080;7.428;2024-03-02T10:36:34;11.80;99.90
13186;DHT22;6658;53.080;7.428;2024-03-02T10:39:06;11.90;99.90
13186;DHT22;6658;53.080;7.428;2024-03-02T10:41:34;12.10;99.90
13186;DHT22;6658;53.080;7.428;2024-03-02T10:44:04;12.10;99.90
13186;DHT22;6658;53.080;7.428;2024-03-02T10:46:31;12.10;99.90
13186;DHT22;6658;53.080;7.428;2024-03-02T10:48:58;12.10;99.90
13186;DHT22;6658;53.080;7.428;2024-03-02T10:51:28;12.20;99.90
13186;DHT22;6658;53.080;7.428;2024-03-02T10:53:58;12.30;99.90
13186;DHT22;6658;53.080;7.428;2024-03-02T11:02:17;12.40;99.90
13186;DHT22;6658;53.080;7.428;2024-03-02T11:04:46;12.40;99.90
13186;DHT22;6658;53.080;7.428;2024-03-02T11:07:15;12.40;99.90
13186;DHT22;6658;53.080;7.428;2024-03-02T11:10:01;12.40;99.90
13186;DHT22;6658;53.080;7.428;2024-03-02T11:12:38;12.50;99.90
13186;DHT22;6658;53.080;7.428;2024-03-02T11:15:32;12.40;99.90
13186;DHT22;6658;53.080;7.428;2024-03-02T11:18:10;12.40;99.90
13186;DHT22;6658;53.080;7.428;2024-03-02T11:20:39;12.50;99.90
13186;DHT22;6658;53.080;7.428;2024-03-02T11:23:06;12.50;99.90
13186;DHT22;6658;53.080;7.428;2024-03-02T11:25:33;12.50;99.90
13186;DHT22;6658;53.080;7.428;2024-03-02T11:28:06;12.60;99.90
13186;DHT22;6658;53.080;7.428;2024-03-02T11:33:03;12.60;99.90
13186;DHT22;6658;53.080;7.428;2024-03-02T11:35:35;12.60;99.90
13186;DHT22;6658;53.080;7.428;2024-03-02T11:38:04;12.70;99.90
13186;DHT22;6658;53.080;7.428;2024-03-02T11:40:32;12.70;99.90
13186;DHT22;6658;53.080;7.428;2024-03-02T11:43:01;12.80;99.90
13186;DHT22;6658;53.080;7.428;2024-03-02T11:45:27;12.90;99.90
13186;DHT22;6658;53.080;7.428;2024-03-02T11:48:02;12.90;99.90
13186;DHT22;6658;53.080;7.428;2024-03-02T11:50:35;12.90;99.90
13186;DHT22;6658;53.080;7.428;2024-03-02T11:53:05;12.90;99.90
13186;DHT22;6658;53.080;7.428;2024-03-02T11:55:37;12.90;99.90
13186;DHT22;6658;53.080;7.428;2024-03-02T11:58:07;12.90;99.90
13186;DHT22;6658;53.080;7.428;2024-03-02T12:00:33;12.80;99.90
13186;DHT22;6658;53.080;7.428;2024-03-02T12:03:02;12.70;99.90
13186;DHT22;6658;53.080;7.428;2024-03-02T12:05:30;12.70;99.90
13186;DHT22;6658;53.080;7.428;2024-03-02T12:07:59;12.80;99.90
13186;DHT22;6658;53.080;7.428;2024-03-02T12:10:26;12.80;99.90
13186;DHT22;6658;53.080;7.428;2024-03-02T12:13:08;12.70;99.90
13186;DHT22;6658;53.080;7.428;2024-03-02T12:15:39;12.70;99.90
13186;DHT22;6658;53.080;7.428;2024-03-02T12:18:08;12.70;99.90
13186;DHT22;6658;53.080;7.428;2024-03-02T12:20:35;12.70;99.90
13186;DHT22;6658;53.080;7.428;2024-03-02T12:23:02;12.80;99.90
13186;DHT22;6658;53.080;7.428;2024-03-02T12:25:31;12.80;99.90
13186;DHT22;6658;53.080;7.428;2024-03-02T12:28:01;12.80;99.90
13186;DHT22;6658;53.080;7.428;2024-03-02T12:30:30;12.90;99.90
13186;DHT22;6658;53.080;7.428;2024-03-02T12:33:02;13.00;99.90
13186;DHT22;6658;53.080;7.428;2024-03-02T12:35:28;13.00;99.90
13186;DHT22;6658;53.080;7.428;2024-03-02T12:37:57;13.10;99.90
13186;DHT22;6658;53.080;7.428;2024-03-02T12:40:24;13.10;99.90
13186;DHT22;6658;53.080;7.428;2024-03-02T12:42:50;13.00;99.90
13186;DHT22;6658;53.080;7.428;2024-03-02T12:45:16;13.10;99.90
13186;DHT22;6658;53.080;7.428;2024-03-02T12:47:51;13.10;99.90
13186;DHT22;6658;53.080;7.428;2024-03-02T12:50:18;13.20;99.90
13186;DHT22;6658;53.080;7.428;2024-03-02T12:52:53;13.20;99.90
13186;DHT22;6658;53.080;7.428;2024-03-02T12:55:23;13.30;99.90
13186;DHT22;6658;53.080;7.428;2024-03-02T12:57:52;13.20;99.90
13186;DHT22;6658;53.080;7.428;2024-03-02T13:00:19;13.20;99.90
13186;DHT22;6658;53.080;7.428;2024-03-02T13:02:46;13.20;99.90
13186;DHT22;6658;53.080;7.428;2024-03-02T13:05:12;13.30;99.90
13186;DHT22;6658;53.080;7.428;2024-03-02T13:07:40;13.30;99.90
13186;DHT22;6658;53.080;7.428;2024-03-02T13:10:10;13.30;99.90
13186;DHT22;6658;53.080;7.428;2024-03-02T13:12:37;13.30;99.90
13186;DHT22;6658;53.080;7.428;2024-03-02T13:15:03;13.20;99.90
13186;DHT22;6658;53.080;7.428;2024-03-02T13:17:34;13.20;99.90
13186;DHT22;6658;53.080;7.428;2024-03-02T13:20:00;13.20;99.90
13186;DHT22;6658;53.080;7.428;2024-03-02T13:22:26;13.30;99.90
13186;DHT22;6658;53.080;7.428;2024-03-02T13:24:53;13.40;99.90
13186;DHT22;6658;53.080;7.428;2024-03-02T13:27:20;13.40;99.90
13186;DHT22;6658;53.080;7.428;2024-03-02T13:29:49;13.60;99.90
13186;DHT22;6658;53.080;7.428;2024-03-02T13:32:16;13.50;99.90
13186;DHT22;6658;53.080;7.428;2024-03-02T13:34:41;13.50;99.90
13186;DHT22;6658;53.080;7.428;2024-03-02T13:37:08;13.50;99.90
13186;DHT22;6658;53.080;7.428;2024-03-02T13:39:34;13.50;99.90
13186;DHT22;6658;53.080;7.428;2024-03-02T13:42:09;13.60;99.90
13186;DHT22;6658;53.080;7.428;2024-03-02T13:44:35;13.50;99.90
13186;DHT22;6658;53.080;7.428;2024-03-02T13:47:01;13.50;99.90
13186;DHT22;6658;53.080;7.428;2024-03-02T13:49:27;13.60;99.90
13186;DHT22;6658;53.080;7.428;2024-03-02T13:52:00;13.70;99.90
13186;DHT22;6658;53.080;7.428;2024-03-02T13:54:26;13.60;99.90
13186;DHT22;6658;53.080;7.428;2024-03-02T13:56:52;13.60;99.90
13186;DHT22;6658;53.080;7.428;2024-03-02T13:59:21;13.60;99.90
13186;DHT22;6658;53.080;7.428;2024-03-02T14:01:47;13.50;99.90
13186;DHT22;6658;53.080;7.428;2024-03-02T14:04:13;13.50;99.90
13186;DHT22;6658;53.080;7.428;2024-03-02T14:06:42;13.50;99.90
13186;DHT22;6658;53.080;7.428;2024-03-02T14:09:09;13.40;99.90
13186;DHT22;6658;53.080;7.428;2024-03-02T14:11:34;13.40;99.90
13186;DHT22;6658;53.080;7.428;2024-03-02T14:14:01;13.30;99.90
13186;DHT22;6658;53.080;7.428;2024-03-02T14:16:27;13.30;99.90
13186;DHT22;6658;53.080;7.428;2024-03-02T14:18:53;13.30;99.90
13186;DHT22;6658;53.080;7.428;2024-03-02T14:21:22;13.40;99.90
13186;DHT22;6658;53.080;7.428;2024-03-02T14:23:48;13.50;99.90
13186;DHT22;6658;53.080;7.428;2024-03-02T14:26:13;13.40;99.90
13186;DHT22;6658;53.080;7.428;2024-03-02T14:28:39;13.40;99.90
13186;DHT22;6658;53.080;7.428;2024-03-02T14:31:05;13.40;99.90
13186;DHT22;6658;53.080;7.428;2024-03-02T14:33:30;13.40;99.90
13186;DHT22;6658;53.080;7.428;2024-03-02T14:35:57;13.50;99.90
13186;DHT22;6658;53.080;7.428;2024-03-02T14:38:22;13.50;99.90
13186;DHT22;6658;53.080;7.428;2024-03-02T14:40:48;13.50;99.90
13186;DHT22;6658;53.080;7.428;2024-03-02T14:43:14;13.40;99.90
13186;DHT22;6658;53.080;7.428;2024-03-02T14:45:42;13.50;99.90
13186;DHT22;6658;53.080;7.428;2024-03-02T14:48:11;13.50;99.90
13186;DHT22;6658;53.080;7.428;2024-03-02T14:50:37;13.50;99.90
13186;DHT22;6658;53.080;7.428;2024-03-02T14:53:12;13.50;99.90
13186;DHT22;6658;53.080;7.428;2024-03-02T14:55:38;13.50;99.90
13186;DHT22;6658;53.080;7.428;2024-03-02T14:58:03;13.50;99.90
13186;DHT22;6658;53.080;7.428;2024-03-02T15:00:29;13.50;99.90
13186;DHT22;6658;53.080;7.428;2024-03-02T15:02:55;13.50;99.90
13186;DHT22;6658;53.080;7.428;2024-03-02T15:05:20;13.50;99.90
13186;DHT22;6658;53.080;7.428;2024-03-02T15:07:46;13.50;99.90
13186;DHT22;6658;53.080;7.428;2024-03-02T15:10:12;13.50;99.90
13186;DHT22;6658;53.080;7.428;2024-03-02T15:12:38;13.50;99.90
13186;DHT22;6658;53.080;7.428;2024-03-02T15:15:04;13.50;99.90
13186;DHT22;6658;53.080;7.428;2024-03-02T15:17:30;13.40;99.90
13186;DHT22;6658;53.080;7.428;2024-03-02T15:19:55;13.40;99.90
13186;DHT22;6658;53.080;7.428;2024-03-02T15:22:21;13.40;99.90
13186;DHT22;6658;53.080;7.428;2024-03-02T15:24:47;13.40;99.90
13186;DHT22;6658;53.080;7.428;2024-03-02T15:27:13;13.40;99.90
13186;DHT22;6658;53.080;7.428;2024-03-02T15:29:38;13.40;99.90
13186;DHT22;6658;53.080;7.428;2024-03-02T15:32:05;13.40;99.90
13186;DHT22;6658;53.080;7.428;2024-03-02T15:34:32;13.30;99.90
13186;DHT22;6658;53.080;7.428;2024-03-02T15:36:58;13.30;99.90
13186;DHT22;6658;53.080;7.428;2024-03-02T15:39:25;13.30;99.90
13186;DHT22;6658;53.080;7.428;2024-03-02T15:41:51;13.30;99.90
13186;DHT22;6658;53.080;7.428;2024-03-02T15:44:16;13.30;99.90
13186;DHT22;6658;53.080;7.428;2024-03-02T15:46:42;13.30;99.90
13186;DHT22;6658;53.080;7.428;2024-03-02T15:49:08;13.30;99.90
13186;DHT22;6658;53.080;7.428;2024-03-02T15:51:34;13.30;99.90
13186;DHT22;6658;53.080;7.428;2024-03-02T15:54:02;13.20;99.90
13186;DHT22;6658;53.080;7.428;2024-03-02T15:56:30;13.20;99.90
13186;DHT22;6658;53.080;7.428;2024-03-02T15:58:55;13.20;99.90
13186;DHT22;6658;53.080;7.428;2024-03-02T16:01:21;13.10;99.90
13186;DHT22;6658;53.080;7.428;2024-03-02T16:03:47;13.10;99.90
13186;DHT22;6658;53.080;7.428;2024-03-02T16:06:12;13.20;99.90
13186;DHT22;6658;53.080;7.428;2024-03-02T16:08:38;13.20;99.90